Time;durP1;ratioP1;P1;durP2;ratioP2;P2;SDS_P1;SDS_P2;PMS_P1;PMS_P2;Temp;Humidity;BMP_temperature;BMP_pressure;BME280_temperature;BME280_humidity;BME280_pressure;Samples;Min_cycle;Max_cycle;Signal;HPM_P1;HPM_P2
2021/04/03 00:01:04;;;;;;;;;;;;;;;;;;5027124;28;1914;-59
2021/04/03 00:03:30;;;;;;;;;;;;;;;;;;5027243;28;922;-59
2021/04/03 00:05:55;;;;;;;;;;;;;;;;;;5027227;28;863;-60
2021/04/03 00:08:24;;;;;;;;;;;;;;;;;;5026814;28;812;-60
2021/04/03 00:10:50;;;;;;;;;;;;;;;;;;5028670;28;867;-60
2021/04/03 00:13:17;;;;;;;;;;;;;;;;;;5031943;28;884;-59
2021/04/03 00:15:42;;;;;;;;;;;;;;;;;;5007694;28;1528;-60
2021/04/03 00:18:08;;;;;;;;;;;;;;;;;;4991114;28;824;-60
2021/04/03 00:20:36;;;;;;;;;;;;;;;;;;4991681;28;1996;-60
2021/04/03 00:23:04;;;;;;;;;;;;;;;;;;4991941;28;923;-60
2021/04/03 00:25:31;;;;;;;;;;;;;;;;;;4991486;28;907;-60
2021/04/03 00:27:56;;;;;;;;;;;;;;;;;;4991599;28;871;-60
2021/04/03 00:30:22;;;;;;;;;;;;;;;;;;4992124;28;930;-60
2021/04/03 00:32:52;;;;;;;;;;;;;;;;;;4992204;28;795;-60
2021/04/03 00:35:18;;;;;;;;;;;;;;;;;;4992007;28;868;-60
2021/04/03 00:37:44;;;;;;;;;;;;;;;;;;4992033;28;754;-60
2021/04/03 00:40:12;;;;;;;;;;;;;;;;;;4990997;28;1898;-60
2021/04/03 00:42:38;;;;;;;;;;;;;;;;;;4990543;28;812;-61
2021/04/03 00:45:04;;;;;;;;;;;;;;;;;;4990817;28;851;-61
2021/04/03 00:47:29;;;;;;;;;;;;;;;;;;4991449;28;1406;-60
2021/04/03 00:49:54;;;;;;;;;;;;;;;;;;4990693;28;989;-60
2021/04/03 00:52:20;;;;;;;;;;;;;;;;;;4990625;28;840;-59
2021/04/03 00:54:45;;;;;;;;;;;;;;;;;;5025959;28;1108;-60
2021/04/03 00:57:11;;;;;;;;;;;;;;;;;;5030452;28;807;-60
2021/04/03 00:59:37;;;;;;;;;;;;;;;;;;5030008;28;1979;-60
2021/04/03 01:02:02;;;;;;;;;;;;;;;;;;5026386;28;1031;-60
2021/04/03 01:04:28;;;;;;;;;;;;;;;;;;5029822;28;894;-59
2021/04/03 01:06:53;;;;;;;;;;;;;;;;;;5030118;28;890;-60
2021/04/03 01:09:18;;;;;;;;;;;;;;;;;;5030478;28;899;-60
2021/04/03 01:11:49;;;;;;;;;;;;;;;;;;5031283;28;847;-60
2021/04/03 01:14:20;;;;;;;;;;;;;;;;;;5030745;28;899;-60
2021/04/03 01:17:15;;;;;;;;;;;;;;;;;;5030785;28;874;-60
2021/04/03 01:19:59;;;;;;;;;;;;;;;;;;5020999;28;1976;-60
2021/04/03 01:22:41;;;;;;;;;;;;;;;;;;5029121;28;844;-60
2021/04/03 01:25:11;;;;;;;;;;;;;;;;;;5029491;28;1121;-60
2021/04/03 01:27:55;;;;;;;;;;;;;;;;;;5029919;28;855;-60
2021/04/03 01:30:23;;;;;;;;;;;;;;;;;;5029688;28;828;-60
2021/04/03 01:32:53;;;;;;;;;;;;;;;;;;5030040;28;812;-60
2021/04/03 01:35:26;;;;;;;;;;;;;;;;;;5029974;28;890;-60
2021/04/03 01:37:55;;;;;;;;;;;;;;;;;;5029917;28;891;-61
2021/04/03 01:40:21;;;;;;;;;;;;;;;;;;5028958;28;1967;-60
2021/04/03 01:42:53;;;;;;;;;;;;;;;;;;5029535;28;847;-60
2021/04/03 01:45:19;;;;;;;;;;;;;;;;;;5030458;28;704;-60
2021/04/03 01:47:45;;;;;;;;;;;;;;;;;;5030273;28;903;-61
2021/04/03 01:50:12;;;;;;;;;;;;;;;;;;5029205;28;878;-61
2021/04/03 01:52:38;;;;;;;;;;;;;;;;;;5029017;28;816;-59
2021/04/03 01:55:10;;;;;;;;;;;;;;;;;;5009518;28;1139;-59
2021/04/03 01:57:35;;;;;;;;;;;;;;;;;;5009271;28;875;-59
2021/04/03 02:00:05;;;;;;;;;;;;;;;;;;5018178;28;1902;-59
2021/04/03 02:02:32;;;;;;;;;;;;;;;;;;5029591;28;676;-59
2021/04/03 02:04:57;;;;;;;;;;;;;;;;;;5029020;28;823;-59
2021/04/03 02:07:24;;;;;;;;;;;;;;;;;;5028951;28;808;-60
2021/04/03 02:09:51;;;;;;;;;;;;;;;;;;5029289;28;863;-60
2021/04/03 02:12:17;;;;;;;;;;;;;;;;;;5029839;28;851;-59
2021/04/03 02:14:45;;;;;;;;;;;;;;;;;;5028888;28;859;-60
2021/04/03 02:17:13;;;;;;;;;;;;;;;;;;5028916;28;918;-59
2021/04/03 02:19:39;;;;;;;;;;;;;;;;;;5028916;28;1979;-59
2021/04/03 02:22:05;;;;;;;;;;;;;;;;;;5028346;28;855;-59
2021/04/03 02:24:30;;;;;;;;;;;;;;;;;;5028408;28;867;-59
2021/04/03 02:26:56;;;;;;;;;;;;;;;;;;5029195;28;852;-60
2021/04/03 02:29:22;;;;;;;;;;;;;;;;;;5028480;28;820;-60
2021/04/03 02:31:48;;;;;;;;;;;;;;;;;;5029106;28;823;-59
2021/04/03 02:34:13;;;;;;;;;;;;;;;;;;5027862;28;839;-59
2021/04/03 02:36:38;;;;;;;;;;;;;;;;;;5028279;28;838;-59
2021/04/03 02:39:04;;;;;;;;;;;;;;;;;;5028251;28;906;-59
2021/04/03 02:41:49;;;;;;;;;;;;;;;;;;5028133;28;1949;-59
2021/04/03 02:44:19;;;;;;;;;;;;;;;;;;5029518;28;1923;-60
2021/04/03 02:46:50;;;;;;;;;;;;;;;;;;5028955;28;819;-59
2021/04/03 02:49:24;;;;;;;;;;;;;;;;;;5028985;28;973;-59
2021/04/03 02:51:54;;;;;;;;;;;;;;;;;;5028511;28;890;-59
2021/04/03 02:54:21;;;;;;;;;;;;;;;;;;5027662;28;1166;-60
2021/04/03 02:56:47;;;;;;;;;;;;;;;;;;5027727;28;1198;-60
2021/04/03 02:59:17;;;;;;;;;;;;;;;;;;5027635;28;931;-60
2021/04/03 03:01:43;;;;;;;;;;;;;;;;;;5028168;28;1910;-60
2021/04/03 03:04:10;;;;;;;;;;;;;;;;;;5027969;28;855;-60
2021/04/03 03:06:36;;;;;;;;;;;;;;;;;;5028152;28;878;-60
2021/04/03 03:09:02;;;;;;;;;;;;;;;;;;5010930;28;1529;-59
2021/04/03 03:11:28;;;;;;;;;;;;;;;;;;5027642;28;870;-60
2021/04/03 03:13:54;;;;;;;;;;;;;;;;;;5027997;28;847;-60
2021/04/03 03:16:21;;;;;;;;;;;;;;;;;;5028272;28;934;-60
2021/04/03 03:18:47;;;;;;;;;;;;;;;;;;5028818;28;831;-59
2021/04/03 03:21:13;;;;;;;;;;;;;;;;;;5027061;28;1955;-60
2021/04/03 03:23:38;;;;;;;;;;;;;;;;;;5023693;28;2698;-59
2021/04/03 03:26:04;;;;;;;;;;;;;;;;;;5007992;28;1265;-60
2021/04/03 03:28:31;;;;;;;;;;;;;;;;;;5007811;28;839;-60
2021/04/03 03:30:57;;;;;;;;;;;;;;;;;;5007540;28;827;-60
2021/04/03 03:33:22;;;;;;;;;;;;;;;;;;5008345;28;899;-61
2021/04/03 03:35:47;;;;;;;;;;;;;;;;;;5008359;28;807;-61
2021/04/03 03:38:13;;;;;;;;;;;;;;;;;;5007432;28;899;-61
2021/04/03 03:40:38;;;;;;;;;;;;;;;;;;5007476;28;1887;-62
2021/04/03 03:43:04;;;;;;;;;;;;;;;;;;5007883;28;863;-61
2021/04/03 03:45:30;;;;;;;;;;;;;;;;;;5007312;28;931;-61
2021/04/03 03:47:55;;;;;;;;;;;;;;;;;;5007237;28;820;-64
2021/04/03 03:50:20;;;;;;;;;;;;;;;;;;5006577;28;2557;-61
2021/04/03 03:52:46;;;;;;;;;;;;;;;;;;5008669;28;1079;-60
2021/04/03 03:55:12;;;;;;;;;;;;;;;;;;5027344;28;811;-60
2021/04/03 03:57:37;;;;;;;;;;;;;;;;;;5027653;28;851;-60
2021/04/03 04:00:04;;;;;;;;;;;;;;;;;;5026824;28;1898;-60
2021/04/03 04:02:29;;;;;;;;;;;;;;;;;;5026485;28;959;-60
2021/04/03 04:04:55;;;;;;;;;;;;;;;;;;5026907;28;859;-61
2021/04/03 04:07:20;;;;;;;;;;;;;;;;;;5027590;28;915;-61
2021/04/03 04:09:45;;;;;;;;;;;;;;;;;;5027649;28;871;-60
2021/04/03 04:12:11;;;;;;;;;;;;;;;;;;5026470;28;832;-60
2021/04/03 04:14:37;;;;;;;;;;;;;;;;;;5026798;28;959;-60
2021/04/03 04:17:03;;;;;;;;;;;;;;;;;;5027138;28;847;-61
2021/04/03 04:19:28;;;;;;;;;;;;;;;;;;5026621;28;1953;-60
2021/04/03 04:21:54;;;;;;;;;;;;;;;;;;5026909;28;843;-61
2021/04/03 04:24:19;;;;;;;;;;;;;;;;;;5027079;28;816;-61
2021/04/03 04:26:45;;;;;;;;;;;;;;;;;;5027517;28;812;-61
2021/04/03 04:29:10;;;;;;;;;;;;;;;;;;5026782;28;846;-60
2021/04/03 04:31:36;;;;;;;;;;;;;;;;;;5027189;28;788;-61
2021/04/03 04:34:01;;;;;;;;;;;;;;;;;;5026853;28;843;-60
2021/04/03 04:36:26;;;;;;;;;;;;;;;;;;5026805;28;835;-60
2021/04/03 04:38:52;;;;;;;;;;;;;;;;;;5026944;28;856;-61
2021/04/03 04:41:17;;;;;;;;;;;;;;;;;;5028065;28;2001;-61
2021/04/03 04:43:43;;;;;;;;;;;;;;;;;;5026717;28;930;-60
2021/04/03 04:46:08;;;;;;;;;;;;;;;;;;5026726;28;847;-60
2021/04/03 04:48:33;;;;;;;;;;;;;;;;;;5026785;28;1167;-61
2021/04/03 04:50:59;;;;;;;;;;;;;;;;;;5026748;28;909;-61
2021/04/03 04:53:24;;;;;;;;;;;;;;;;;;5020798;28;1147;-61
2021/04/03 04:55:49;;;;;;;;;;;;;;;;;;5007406;28;871;-61
2021/04/03 04:58:16;;;;;;;;;;;;;;;;;;5011088;28;847;-60
2021/04/03 05:00:41;;;;;;;;;;;;;;;;;;5025036;28;1985;-60
2021/04/03 05:03:06;;;;;;;;;;;;;;;;;;5029930;28;1296;-61
2021/04/03 05:05:32;;;;;;;;;;;;;;;;;;5030041;28;1158;-60
2021/04/03 05:07:57;;;;;;;;;;;;;;;;;;5030204;28;895;-61
2021/04/03 05:10:22;;;;;;;;;;;;;;;;;;5029595;28;674;-61
2021/04/03 05:12:48;;;;;;;;;;;;;;;;;;5030594;28;855;-60
2021/04/03 05:15:13;;;;;;;;;;;;;;;;;;5030166;28;871;-61
2021/04/03 05:17:39;;;;;;;;;;;;;;;;;;5030038;28;839;-60
2021/04/03 05:20:04;;;;;;;;;;;;;;;;;;5029572;28;1894;-60
2021/04/03 05:22:30;;;;;;;;;;;;;;;;;;5029796;28;799;-61
2021/04/03 05:24:55;;;;;;;;;;;;;;;;;;5029313;28;835;-60
2021/04/03 05:27:20;;;;;;;;;;;;;;;;;;5029661;28;851;-61
2021/04/03 05:29:46;;;;;;;;;;;;;;;;;;5030898;28;981;-61
2021/04/03 05:32:11;;;;;;;;;;;;;;;;;;5029402;28;930;-61
2021/04/03 05:34:37;;;;;;;;;;;;;;;;;;5029034;28;927;-61
2021/04/03 05:37:02;;;;;;;;;;;;;;;;;;5029655;28;820;-61
2021/04/03 05:39:27;;;;;;;;;;;;;;;;;;5029848;28;1129;-61
2021/04/03 05:41:53;;;;;;;;;;;;;;;;;;5029500;28;1953;-61
2021/04/03 05:44:21;;;;;;;;;;;;;;;;;;5030097;28;886;-60
2021/04/03 05:46:47;;;;;;;;;;;;;;;;;;5030272;28;844;-61
2021/04/03 05:49:12;;;;;;;;;;;;;;;;;;5028818;28;919;-61
2021/04/03 05:51:38;;;;;;;;;;;;;;;;;;5029191;28;863;-60
2021/04/03 05:54:04;;;;;;;;;;;;;;;;;;5029275;28;1182;-61
2021/04/03 05:56:30;;;;;;;;;;;;;;;;;;5029461;28;1040;-61
2021/04/03 05:58:56;;;;;;;;;;;;;;;;;;5029090;28;1020;-61
2021/04/03 06:01:22;;;;;;;;;;;;;;;;;;5029064;28;1890;-61
2021/04/03 06:03:47;;;;;;;;;;;;;;;;;;5029978;28;816;-61
2021/04/03 06:06:12;;;;;;;;;;;;;;;;;;5029180;28;882;-62
2021/04/03 06:08:38;;;;;;;;;;;;;;;;;;5027798;28;820;-61
2021/04/03 06:11:16;;;;;;;;;;;;;;;;;;5029055;28;867;-61
2021/04/03 06:13:43;;;;;;;;;;;;;;;;;;5028895;28;840;-61
2021/04/03 06:16:26;;;;;;;;;;;;;;;;;;5028539;28;855;-61
2021/04/03 06:19:07;;;;;;;;;;;;;;;;;;5028840;28;938;-61
2021/04/03 06:21:33;;;;;;;;;;;;;;;;;;5028898;28;1965;-61
2021/04/03 06:23:58;;;;;;;;;;;;;;;;;;5028485;28;863;-61
2021/04/03 06:26:23;;;;;;;;;;;;;;;;;;5028443;28;787;-61
2021/04/03 06:28:49;;;;;;;;;;;;;;;;;;5029240;28;827;-61
2021/04/03 06:31:18;;;;;;;;;;;;;;;;;;5029489;28;906;-61
2021/04/03 06:33:45;;;;;;;;;;;;;;;;;;5011164;28;1848;-62
2021/04/03 06:36:14;;;;;;;;;;;;;;;;;;5028449;28;855;-61
2021/04/03 06:38:40;;;;;;;;;;;;;;;;;;5028096;28;965;-61
2021/04/03 06:41:17;;;;;;;;;;;;;;;;;;5028432;28;1890;-61
2021/04/03 06:43:59;;;;;;;;;;;;;;;;;;5028525;28;819;-61
2021/04/03 06:46:25;;;;;;;;;;;;;;;;;;5028739;28;915;-61
2021/04/03 06:48:55;;;;;;;;;;;;;;;;;;5028181;28;848;-61
2021/04/03 06:51:24;;;;;;;;;;;;;;;;;;5028177;28;847;-61
2021/04/03 06:53:50;;;;;;;;;;;;;;;;;;5018865;28;1159;-61
2021/04/03 06:56:23;;;;;;;;;;;;;;;;;;5009333;28;765;-60
2021/04/03 06:58:51;;;;;;;;;;;;;;;;;;5008888;28;921;-60
2021/04/03 07:01:17;;;;;;;;;;;;;;;;;;5028669;28;1965;-60
2021/04/03 07:03:52;;;;;;;;;;;;;;;;;;5028036;28;896;-60
2021/04/03 07:06:20;;;;;;;;;;;;;;;;;;5028806;28;896;-60
2021/04/03 07:08:46;;;;;;;;;;;;;;;;;;5028356;28;1183;-60
2021/04/03 07:11:12;;;;;;;;;;;;;;;;;;5028340;28;923;-60
2021/04/03 07:13:37;;;;;;;;;;;;;;;;;;5027717;28;926;-60
2021/04/03 07:16:03;;;;;;;;;;;;;;;;;;5027897;28;926;-60
2021/04/03 07:18:29;;;;;;;;;;;;;;;;;;5027696;28;915;-60
2021/04/03 07:20:55;;;;;;;;;;;;;;;;;;5027383;28;1964;-60
2021/04/03 07:23:20;;;;;;;;;;;;;;;;;;5026604;28;1142;-60
2021/04/03 07:25:46;;;;;;;;;;;;;;;;;;5028547;28;869;-60
2021/04/03 07:28:15;;;;;;;;;;;;;;;;;;5027551;28;851;-61
2021/04/03 07:30:47;;;;;;;;;;;;;;;;;;5027069;28;935;-60
2021/04/03 07:33:19;;;;;;;;;;;;;;;;;;5026905;28;918;-60
2021/04/03 07:35:51;;;;;;;;;;;;;;;;;;5027487;28;816;-60
2021/04/03 07:38:24;;;;;;;;;;;;;;;;;;5027705;28;827;-60
2021/04/03 07:40:51;;;;;;;;;;;;;;;;;;5026933;28;1943;-61
2021/04/03 07:43:35;;;;;;;;;;;;;;;;;;5027672;28;859;-60
2021/04/03 07:46:01;;;;;;;;;;;;;;;;;;5026977;28;866;-60
2021/04/03 07:48:45;;;;;;;;;;;;;;;;;;5027317;28;871;-60
2021/04/03 07:51:15;;;;;;;;;;;;;;;;;;5026737;28;941;-60
2021/04/03 07:53:40;;;;;;;;;;;;;;;;;;5026741;28;1135;-60
2021/04/03 07:56:07;;;;;;;;;;;;;;;;;;5027637;28;883;-60
2021/04/03 07:58:33;;;;;;;;;;;;;;;;;;5027047;28;901;-60
2021/04/03 08:00:59;;;;;;;;;;;;;;;;;;5026551;28;1959;-60
2021/04/03 08:03:28;;;;;;;;;;;;;;;;;;5027272;28;843;-60
2021/04/03 08:06:04;;;;;;;;;;;;;;;;;;5026856;28;784;-60
2021/04/03 08:08:30;;;;;;;;;;;;;;;;;;5026424;28;926;-60
2021/04/03 08:11:05;;;;;;;;;;;;;;;;;;5027171;28;886;-60
2021/04/03 08:13:31;;;;;;;;;;;;;;;;;;5027168;28;902;-60
2021/04/03 08:15:56;;;;;;;;;;;;;;;;;;5026644;28;823;-60
2021/04/03 08:18:22;;;;;;;;;;;;;;;;;;5026219;28;1068;-60
2021/04/03 08:20:51;;;;;;;;;;;;;;;;;;5027898;28;1926;-60
2021/04/03 08:23:28;;;;;;;;;;;;;;;;;;5027562;28;890;-60
2021/04/03 08:25:54;;;;;;;;;;;;;;;;;;5026938;28;891;-60
2021/04/03 08:28:20;;;;;;;;;;;;;;;;;;5027322;28;816;-60
2021/04/03 08:30:45;;;;;;;;;;;;;;;;;;5028324;28;915;-60
2021/04/03 08:33:12;;;;;;;;;;;;;;;;;;5030926;28;843;-61
2021/04/03 08:35:39;;;;;;;;;;;;;;;;;;5030500;28;783;-60
2021/04/03 08:38:08;;;;;;;;;;;;;;;;;;5030798;28;903;-60
2021/04/03 08:40:34;;;;;;;;;;;;;;;;;;5030126;28;1898;-60
2021/04/03 08:42:59;;;;;;;;;;;;;;;;;;5030120;28;827;-60
2021/04/03 08:45:24;;;;;;;;;;;;;;;;;;5030436;28;875;-60
2021/04/03 08:47:50;;;;;;;;;;;;;;;;;;5030115;28;832;-61
2021/04/03 08:50:15;;;;;;;;;;;;;;;;;;5030538;28;866;-61
2021/04/03 08:52:41;;;;;;;;;;;;;;;;;;5029652;28;1214;-60
2021/04/03 08:55:06;;;;;;;;;;;;;;;;;;5010760;28;923;-60
2021/04/03 08:57:32;;;;;;;;;;;;;;;;;;5010724;28;852;-60
2021/04/03 09:00:00;;;;;;;;;;;;;;;;;;5019275;28;2393;-60
2021/04/03 09:02:26;;;;;;;;;;;;;;;;;;5029942;28;870;-61
2021/04/03 09:04:52;;;;;;;;;;;;;;;;;;5029619;28;910;-61
2021/04/03 09:07:50;;;;;;;;;;;;;;;;;;5030318;28;902;-60
2021/04/03 09:10:17;;;;;;;;;;;;;;;;;;5039977;28;1317;-60
2021/04/03 09:12:43;;;;;;;;;;;;;;;;;;5030126;28;851;-60
2021/04/03 09:15:10;;;;;;;;;;;;;;;;;;5029943;28;800;-61
2021/04/03 09:17:46;;;;;;;;;;;;;;;;;;5029327;28;1108;-61
2021/04/03 09:20:14;;;;;;;;;;;;;;;;;;5029371;28;1886;-60
2021/04/03 09:22:40;;;;;;;;;;;;;;;;;;5028427;28;827;-60
2021/04/03 09:25:09;;;;;;;;;;;;;;;;;;5028519;28;895;-60
2021/04/03 09:27:35;;;;;;;;;;;;;;;;;;5029407;28;812;-61
2021/04/03 09:30:05;;;;;;;;;;;;;;;;;;5029414;28;819;-61
2021/04/03 09:32:44;;;;;;;;;;;;;;;;;;5029481;28;839;-61
2021/04/03 09:35:10;;;;;;;;;;;;;;;;;;5029240;28;808;-61
2021/04/03 09:37:35;;;;;;;;;;;;;;;;;;5029205;28;855;-61
2021/04/03 09:40:01;;;;;;;;;;;;;;;;;;5029218;28;2004;-61
2021/04/03 09:42:27;;;;;;;;;;;;;;;;;;5029655;28;796;-61
2021/04/03 09:44:54;;;;;;;;;;;;;;;;;;5029681;28;897;-61
2021/04/03 09:47:19;;;;;;;;;;;;;;;;;;5028856;28;887;-61
2021/04/03 09:49:45;;;;;;;;;;;;;;;;;;5030442;28;844;-61
2021/04/03 09:52:13;;;;;;;;;;;;;;;;;;5029496;28;820;-61
2021/04/03 09:54:39;;;;;;;;;;;;;;;;;;5028849;28;1194;-60
2021/04/03 09:57:05;;;;;;;;;;;;;;;;;;5028776;28;906;-60
2021/04/03 09:59:30;;;;;;;;;;;;;;;;;;5029372;28;817;-60
2021/04/03 10:01:56;;;;;;;;;;;;;;;;;;5029261;28;1906;-61
2021/04/03 10:04:21;;;;;;;;;;;;;;;;;;5029292;28;788;-61
2021/04/03 10:06:47;;;;;;;;;;;;;;;;;;5030253;28;887;-61
2021/04/03 10:09:12;;;;;;;;;;;;;;;;;;5028998;28;811;-60
2021/04/03 10:11:37;;;;;;;;;;;;;;;;;;5028849;28;914;-61
2021/04/03 10:14:03;;;;;;;;;;;;;;;;;;5028932;28;867;-60
2021/04/03 10:16:28;;;;;;;;;;;;;;;;;;5028807;28;1029;-60
2021/04/03 10:18:54;;;;;;;;;;;;;;;;;;5028336;28;828;-61
2021/04/03 10:21:20;;;;;;;;;;;;;;;;;;5029292;28;1902;-60
2021/04/03 10:23:45;;;;;;;;;;;;;;;;;;5030077;28;815;-60
2021/04/03 10:26:11;;;;;;;;;;;;;;;;;;5028302;28;823;-61
2021/04/03 10:28:36;;;;;;;;;;;;;;;;;;5028428;28;831;-61
2021/04/03 10:31:01;;;;;;;;;;;;;;;;;;5028959;28;819;-62
2021/04/03 10:33:27;;;;;;;;;;;;;;;;;;5028833;28;847;-61
2021/04/03 10:35:52;;;;;;;;;;;;;;;;;;5028596;28;842;-61
2021/04/03 10:38:17;;;;;;;;;;;;;;;;;;5028945;28;851;-61
2021/04/03 10:40:43;;;;;;;;;;;;;;;;;;5028745;28;1957;-60
2021/04/03 10:43:08;;;;;;;;;;;;;;;;;;5028155;28;875;-61
2021/04/03 10:45:34;;;;;;;;;;;;;;;;;;5028323;28;1575;-62
2021/04/03 10:47:59;;;;;;;;;;;;;;;;;;5028555;28;935;-61
2021/04/03 10:50:24;;;;;;;;;;;;;;;;;;5028081;28;875;-60
2021/04/03 10:52:50;;;;;;;;;;;;;;;;;;5026859;28;1154;-60
2021/04/03 10:55:16;;;;;;;;;;;;;;;;;;5008049;28;852;-60
2021/04/03 10:57:41;;;;;;;;;;;;;;;;;;5008345;28;832;-60
2021/04/03 11:00:07;;;;;;;;;;;;;;;;;;5018197;28;1967;-60
2021/04/03 11:02:32;;;;;;;;;;;;;;;;;;5028258;28;800;-60
2021/04/03 11:04:58;;;;;;;;;;;;;;;;;;5028520;28;962;-60
2021/04/03 11:07:23;;;;;;;;;;;;;;;;;;5028266;28;687;-60
2021/04/03 11:09:49;;;;;;;;;;;;;;;;;;5028717;28;842;-60
2021/04/03 11:12:15;;;;;;;;;;;;;;;;;;5027549;28;792;-60
2021/04/03 11:14:43;;;;;;;;;;;;;;;;;;5027888;28;1055;-60
2021/04/03 11:17:09;;;;;;;;;;;;;;;;;;5027794;28;1194;-60
2021/04/03 11:19:34;;;;;;;;;;;;;;;;;;5027921;28;894;-60
2021/04/03 11:22:00;;;;;;;;;;;;;;;;;;5027907;28;1880;-60
2021/04/03 11:24:25;;;;;;;;;;;;;;;;;;5027486;28;828;-60
2021/04/03 11:26:51;;;;;;;;;;;;;;;;;;5026991;28;914;-60
2021/04/03 11:29:17;;;;;;;;;;;;;;;;;;5027831;28;859;-60
2021/04/03 11:31:42;;;;;;;;;;;;;;;;;;5027128;28;835;-60
2021/04/03 11:34:07;;;;;;;;;;;;;;;;;;5026895;28;891;-60
2021/04/03 11:36:33;;;;;;;;;;;;;;;;;;5027390;28;796;-60
2021/04/03 11:38:58;;;;;;;;;;;;;;;;;;5027546;28;856;-60
2021/04/03 11:41:24;;;;;;;;;;;;;;;;;;5027242;28;1949;-60
2021/04/03 11:43:49;;;;;;;;;;;;;;;;;;5027902;28;839;-60
2021/04/03 11:46:15;;;;;;;;;;;;;;;;;;5027876;28;1165;-60
2021/04/03 11:48:40;;;;;;;;;;;;;;;;;;5027195;28;903;-60
2021/04/03 11:51:05;;;;;;;;;;;;;;;;;;5026990;28;895;-60
2021/04/03 11:53:31;;;;;;;;;;;;;;;;;;5026835;28;1189;-60
2021/04/03 11:55:57;;;;;;;;;;;;;;;;;;5027296;28;911;-60
2021/04/03 11:58:22;;;;;;;;;;;;;;;;;;5026426;28;891;-61
2021/04/03 12:00:47;;;;;;;;;;;;;;;;;;5027583;28;1914;-60
2021/04/03 12:03:13;;;;;;;;;;;;;;;;;;5027261;28;875;-60
2021/04/03 12:05:38;;;;;;;;;;;;;;;;;;5029194;28;938;-60
2021/04/03 12:08:03;;;;;;;;;;;;;;;;;;5031245;28;827;-61
2021/04/03 12:10:29;;;;;;;;;;;;;;;;;;5031320;28;875;-60
2021/04/03 12:12:54;;;;;;;;;;;;;;;;;;5031139;28;915;-60
2021/04/03 12:15:20;;;;;;;;;;;;;;;;;;5013429;28;1344;-60
2021/04/03 12:17:45;;;;;;;;;;;;;;;;;;5031153;28;854;-60
2021/04/03 12:20:16;;;;;;;;;;;;;;;;;;5012667;28;1898;-60
2021/04/03 12:22:41;;;;;;;;;;;;;;;;;;5029508;28;883;-60
2021/04/03 12:25:07;;;;;;;;;;;;;;;;;;5030856;28;883;-60
2021/04/03 12:27:32;;;;;;;;;;;;;;;;;;5031074;28;855;-61
2021/04/03 12:29:58;;;;;;;;;;;;;;;;;;5031162;28;851;-61
2021/04/03 12:32:23;;;;;;;;;;;;;;;;;;5030722;28;819;-61
2021/04/03 12:34:48;;;;;;;;;;;;;;;;;;5031478;28;915;-61
2021/04/03 12:37:16;;;;;;;;;;;;;;;;;;5030874;28;878;-61
2021/04/03 12:39:41;;;;;;;;;;;;;;;;;;5029989;28;839;-61
2021/04/03 12:42:07;;;;;;;;;;;;;;;;;;5029918;28;1918;-61
2021/04/03 12:44:33;;;;;;;;;;;;;;;;;;5030604;28;832;-61
2021/04/03 12:46:58;;;;;;;;;;;;;;;;;;5030492;28;915;-61
2021/04/03 12:49:23;;;;;;;;;;;;;;;;;;5030216;28;943;-62
2021/04/03 12:51:49;;;;;;;;;;;;;;;;;;5030982;28;843;-60
2021/04/03 12:54:14;;;;;;;;;;;;;;;;;;5017759;28;1107;-60
2021/04/03 12:56:40;;;;;;;;;;;;;;;;;;5010489;28;843;-61
2021/04/03 12:59:05;;;;;;;;;;;;;;;;;;5011737;28;827;-61
2021/04/03 13:01:30;;;;;;;;;;;;;;;;;;5030558;28;1973;-60
2021/04/03 13:03:59;;;;;;;;;;;;;;;;;;5030668;28;907;-60
2021/04/03 13:06:24;;;;;;;;;;;;;;;;;;5030094;28;903;-60
2021/04/03 13:08:50;;;;;;;;;;;;;;;;;;5030143;28;1058;-60
2021/04/03 13:11:18;;;;;;;;;;;;;;;;;;5030442;28;1341;-60
2021/04/03 13:13:51;;;;;;;;;;;;;;;;;;5030009;28;855;-60
2021/04/03 13:16:16;;;;;;;;;;;;;;;;;;5029733;28;918;-61
2021/04/03 13:18:44;;;;;;;;;;;;;;;;;;5029131;28;863;-60
2021/04/03 13:21:12;;;;;;;;;;;;;;;;;;5029645;28;1994;-62
2021/04/03 13:23:40;;;;;;;;;;;;;;;;;;5030077;28;902;-63
2021/04/03 13:26:07;;;;;;;;;;;;;;;;;;5029874;28;855;-62
2021/04/03 13:28:35;;;;;;;;;;;;;;;;;;5029954;28;827;-64
2021/04/03 13:31:10;;;;;;;;;;;;;;;;;;5029309;28;890;-62
2021/04/03 13:33:41;;;;;;;;;;;;;;;;;;5029176;28;921;-63
2021/04/03 13:36:10;;;;;;;;;;;;;;;;;;5026064;28;1632;-62
2021/04/03 13:38:38;;;;;;;;;;;;;;;;;;5027299;28;1662;-61
2021/04/03 13:41:14;;;;;;;;;;;;;;;;;;5029168;28;1914;-61
2021/04/03 13:43:39;;;;;;;;;;;;;;;;;;5018553;28;1696;-62
2021/04/03 13:46:04;;;;;;;;;;;;;;;;;;5008720;28;855;-62
2021/04/03 13:48:30;;;;;;;;;;;;;;;;;;5009377;28;855;-61
2021/04/03 13:50:55;;;;;;;;;;;;;;;;;;5009550;28;893;-62
2021/04/03 13:53:20;;;;;;;;;;;;;;;;;;5028591;28;1688;-61
2021/04/03 13:55:50;;;;;;;;;;;;;;;;;;5029511;28;902;-61
2021/04/03 13:58:19;;;;;;;;;;;;;;;;;;5011151;28;1230;-61
2021/04/03 14:00:45;;;;;;;;;;;;;;;;;;5029461;28;1909;-61
2021/04/03 14:03:12;;;;;;;;;;;;;;;;;;5029167;28;907;-61
2021/04/03 14:05:38;;;;;;;;;;;;;;;;;;5029034;28;926;-61
2021/04/03 14:08:03;;;;;;;;;;;;;;;;;;5029040;28;950;-61
2021/04/03 14:10:28;;;;;;;;;;;;;;;;;;5009615;28;1684;-61
2021/04/03 14:12:54;;;;;;;;;;;;;;;;;;5009086;28;843;-61
2021/04/03 14:15:20;;;;;;;;;;;;;;;;;;5010080;28;867;-61
2021/04/03 14:17:45;;;;;;;;;;;;;;;;;;5009800;28;965;-60
2021/04/03 14:20:11;;;;;;;;;;;;;;;;;;5009319;28;1957;-61
2021/04/03 14:22:36;;;;;;;;;;;;;;;;;;5008707;28;883;-61
2021/04/03 14:25:02;;;;;;;;;;;;;;;;;;5009072;28;1022;-61
2021/04/03 14:27:27;;;;;;;;;;;;;;;;;;5008997;28;911;-60
2021/04/03 14:29:53;;;;;;;;;;;;;;;;;;5007859;28;860;-61
2021/04/03 14:32:20;;;;;;;;;;;;;;;;;;5009846;28;851;-60
2021/04/03 14:34:48;;;;;;;;;;;;;;;;;;5009585;28;911;-61
2021/04/03 14:37:19;;;;;;;;;;;;;;;;;;5008535;28;910;-61
2021/04/03 14:39:47;;;;;;;;;;;;;;;;;;5008413;28;863;-61
2021/04/03 14:42:12;;;;;;;;;;;;;;;;;;5009208;28;1957;-61
2021/04/03 14:44:41;;;;;;;;;;;;;;;;;;5007949;28;1717;-62
2021/04/03 14:47:08;;;;;;;;;;;;;;;;;;5008257;28;1084;-61
2021/04/03 14:49:39;;;;;;;;;;;;;;;;;;5008983;28;860;-61
2021/04/03 14:52:08;;;;;;;;;;;;;;;;;;4990481;28;2269;-60
2021/04/03 14:54:36;;;;;;;;;;;;;;;;;;5000729;28;1565;-63
2021/04/03 14:57:02;;;;;;;;;;;;;;;;;;5015329;28;2079;-63
2021/04/03 14:59:28;;;;;;;;;;;;;;;;;;5010197;28;2340;-62
2021/04/03 15:01:54;;;;;;;;;;;;;;;;;;5017368;28;1898;-62
2021/04/03 15:04:21;;;;;;;;;;;;;;;;;;5023566;28;1635;-62
2021/04/03 15:06:47;;;;;;;;;;;;;;;;;;5026707;28;1837;-62
2021/04/03 15:09:12;;;;;;;;;;;;;;;;;;5021173;28;1305;-61
2021/04/03 15:11:38;;;;;;;;;;;;;;;;;;5029259;28;2088;-62
2021/04/03 15:14:03;;;;;;;;;;;;;;;;;;5016829;28;1774;-64
2021/04/03 15:16:29;;;;;;;;;;;;;;;;;;5024867;28;1794;-62
2021/04/03 15:18:54;;;;;;;;;;;;;;;;;;5020729;28;1323;-62
2021/04/03 15:21:20;;;;;;;;;;;;;;;;;;5021806;28;2494;-62
2021/04/03 15:23:45;;;;;;;;;;;;;;;;;;5021881;28;1746;-62
2021/04/03 15:26:12;;;;;;;;;;;;;;;;;;5041865;28;1820;-61
2021/04/03 15:28:37;;;;;;;;;;;;;;;;;;5024264;28;1667;-61
2021/04/03 15:31:03;;;;;;;;;;;;;;;;;;5021630;28;1871;-61
2021/04/03 15:33:28;;;;;;;;;;;;;;;;;;5013575;28;1620;-63
2021/04/03 15:35:53;;;;;;;;;;;;;;;;;;5025026;28;1666;-62
2021/04/03 15:38:20;;;;;;;;;;;;;;;;;;5019716;28;1716;-64
2021/04/03 15:40:45;;;;;;;;;;;;;;;;;;5027879;28;1956;-64
2021/04/03 15:43:11;;;;;;;;;;;;;;;;;;5021302;28;2046;-64
2021/04/03 15:45:36;;;;;;;;;;;;;;;;;;5022821;28;1695;-63
2021/04/03 15:48:02;;;;;;;;;;;;;;;;;;5026895;28;1723;-65
2021/04/03 15:50:27;;;;;;;;;;;;;;;;;;5025102;28;1041;-64
2021/04/03 15:52:53;;;;;;;;;;;;;;;;;;5020886;28;1700;-62
2021/04/03 15:55:18;;;;;;;;;;;;;;;;;;5022953;28;1754;-61
2021/04/03 15:57:44;;;;;;;;;;;;;;;;;;5026871;28;922;-63
2021/04/03 16:00:09;;;;;;;;;;;;;;;;;;5020986;28;1984;-61
2021/04/03 16:02:35;;;;;;;;;;;;;;;;;;5015843;28;1743;-62
2021/04/03 16:05:01;;;;;;;;;;;;;;;;;;5040172;28;1837;-65
2021/04/03 16:07:26;;;;;;;;;;;;;;;;;;5021571;28;1815;-61
2021/04/03 16:09:52;;;;;;;;;;;;;;;;;;5023391;28;1135;-62
2021/04/03 16:12:17;;;;;;;;;;;;;;;;;;5025614;28;1750;-61
2021/04/03 16:14:43;;;;;;;;;;;;;;;;;;5024245;28;1830;-62
2021/04/03 16:17:08;;;;;;;;;;;;;;;;;;5016738;28;951;-62
2021/04/03 16:19:34;;;;;;;;;;;;;;;;;;5024219;28;1965;-66
2021/04/03 16:21:59;;;;;;;;;;;;;;;;;;5026481;28;1914;-61
2021/04/03 16:24:25;;;;;;;;;;;;;;;;;;5022648;28;1691;-63
2021/04/03 16:26:51;;;;;;;;;;;;;;;;;;5024658;28;950;-62
2021/04/03 16:29:16;;;;;;;;;;;;;;;;;;5018157;28;1802;-63
2021/04/03 16:31:42;;;;;;;;;;;;;;;;;;5018632;28;1730;-62
2021/04/03 16:34:07;;;;;;;;;;;;;;;;;;5025541;28;1803;-62
2021/04/03 16:36:33;;;;;;;;;;;;;;;;;;5013499;28;1775;-62
2021/04/03 16:38:59;;;;;;;;;;;;;;;;;;5024133;28;1925;-62
2021/04/03 16:41:24;;;;;;;;;;;;;;;;;;5016109;28;1985;-62
2021/04/03 16:43:50;;;;;;;;;;;;;;;;;;5020619;28;1961;-61
2021/04/03 16:46:15;;;;;;;;;;;;;;;;;;5020077;28;1652;-62
2021/04/03 16:48:41;;;;;;;;;;;;;;;;;;5019439;28;1715;-61
2021/04/03 16:51:06;;;;;;;;;;;;;;;;;;5017981;28;1763;-63
2021/04/03 16:53:31;;;;;;;;;;;;;;;;;;5020762;28;1715;-62
2021/04/03 16:55:57;;;;;;;;;;;;;;;;;;5024497;28;1739;-63
2021/04/03 16:58:22;;;;;;;;;;;;;;;;;;5032338;28;1051;-62
2021/04/03 17:00:48;;;;;;;;;;;;;;;;;;5028976;28;2056;-63
2021/04/03 17:03:14;;;;;;;;;;;;;;;;;;5030930;28;1703;-63
2021/04/03 17:05:39;;;;;;;;;;;;;;;;;;5023951;28;1655;-63
2021/04/03 17:08:04;;;;;;;;;;;;;;;;;;5042505;28;1816;-62
2021/04/03 17:10:30;;;;;;;;;;;;;;;;;;5020408;28;1086;-62
2021/04/03 17:12:55;;;;;;;;;;;;;;;;;;5023745;28;2774;-63